KNKX/NKX METAR and TAF weather

Enter ICAO airport designator
Station Type Date Time Source
KNKX METAR 2020/01/19 22:55 UTC NOAA

KNKX 192255Z 21005KT 10SM CLR 19/04 A3007 RMK AO2 SLP177 T01890039


Station Type Date Time Source
KNKX Decoded METAR 2020/01/19 22:55 UTC NOAA

MCAS MIRAMAR, CA, United States (KNKX) 32-52N 117-09W 146M
Jan 19, 2020 - 05:55 PM EST / 2020.01.19 2255 UTC
Wind: from the SSW (210 degrees) at 6 MPH (5 KT):0
Visibility: 10 mile(s):0
Sky conditions: clear
Temperature: 66.0 F (18.9 C)
Dew Point: 39.0 F (3.9 C)
Relative Humidity: 36%
Pressure (altimeter): 30.07 in. Hg (1018 hPa)
ob: KNKX 192255Z 21005KT 10SM CLR 19/04 A3007 RMK AO2 SLP177 T01890039
cycle: 23

Station Type Date Time Source
KNKX TAF 2020/01/19 21:27 UTC NOAA

TAF KNKX 1921/2021 30007KT 9999 SCT200 QNH3000INS
BECMG 2001/2003 VRB05KT 999 SKC QNH2999INS T26/1921Z T08/2012Z

Example: see airport list